Time;durP1;ratioP1;P1;durP2;ratioP2;P2;SDS_P1;SDS_P2;PMS_P1;PMS_P2;Temp;Humidity;BMP_temperature;BMP_pressure;BME280_temperature;BME280_humidity;BME280_pressure;Samples;Min_cycle;Max_cycle;Signal;HPM_P1;HPM_P2
2022/03/06 00:00:08;;;;;;;;;;;21.30;26.60;;;;;;5053516;28;19908;-46
2022/03/06 00:02:37;;;;;;;;;;;21.30;26.60;;;;;;5053692;28;19948;-54
2022/03/06 00:05:03;;;;;;;;;;;21.30;26.60;;;;;;5054163;28;19956;-48
2022/03/06 00:07:29;;;;;;;;;;;21.30;26.70;;;;;;5053937;28;19921;-53
2022/03/06 00:09:55;;;;;;;;;;;21.20;26.60;;;;;;5052471;28;20240;-50
2022/03/06 00:12:20;;;;;;;;;;;21.20;26.60;;;;;;5054328;28;19909;-50
2022/03/06 00:14:46;;;;;;;;;;;21.20;26.60;;;;;;5053260;28;19913;-50
2022/03/06 00:17:12;;;;;;;;;;;21.20;26.60;;;;;;5052540;28;19920;-50
2022/03/06 00:19:37;;;;;;;;;;;21.20;26.60;;;;;;5053355;28;19921;-50
2022/03/06 00:22:03;;;;;;;;;;;21.20;26.60;;;;;;5050944;28;19909;-52
2022/03/06 00:24:29;;;;;;;;;;;21.20;26.60;;;;;;5052127;28;19959;-51
2022/03/06 00:26:54;;;;;;;;;;;21.20;26.60;;;;;;5052537;28;19959;-50
2022/03/06 00:29:20;;;;;;;;;;;21.20;26.60;;;;;;5053132;28;19966;-53
2022/03/06 00:31:46;;;;;;;;;;;21.20;26.60;;;;;;5050923;28;20235;-50
2022/03/06 00:34:11;;;;;;;;;;;21.20;26.60;;;;;;5054140;28;20324;-54
2022/03/06 00:36:37;;;;;;;;;;;21.20;26.60;;;;;;5052034;28;19948;-49
2022/03/06 00:39:06;;;;;;;;;;;21.20;26.60;;;;;;5049005;28;19924;-54
2022/03/06 00:41:33;;;;;;;;;;;21.10;27.10;;;;;;5051197;28;19908;-52
2022/03/06 00:43:58;;;;;;;;;;;21.20;26.60;;;;;;5053232;28;19920;-52
2022/03/06 00:46:24;;;;;;;;;;;21.10;26.60;;;;;;5053397;28;19919;-46
2022/03/06 00:48:50;;;;;;;;;;;21.10;26.60;;;;;;5053282;28;19909;-50
2022/03/06 00:51:16;;;;;;;;;;;21.10;26.60;;;;;;5050006;28;19923;-53
2022/03/06 00:53:42;;;;;;;;;;;21.10;26.50;;;;;;5053304;28;19963;-53
2022/03/06 00:56:08;;;;;;;;;;;21.10;26.60;;;;;;5052924;28;19909;-51
2022/03/06 00:58:33;;;;;;;;;;;21.10;26.50;;;;;;5053563;28;19920;-50
2022/03/06 01:00:59;;;;;;;;;;;21.10;26.60;;;;;;5051703;28;19909;-51
2022/03/06 01:03:25;;;;;;;;;;;21.10;26.50;;;;;;5053163;28;19920;-49
2022/03/06 01:05:50;;;;;;;;;;;21.10;26.50;;;;;;5051147;28;20336;-47
2022/03/06 01:08:16;;;;;;;;;;;21.10;26.50;;;;;;5053294;28;20289;-49
2022/03/06 01:10:43;;;;;;;;;;;21.10;26.50;;;;;;5051245;28;19958;-49
2022/03/06 01:13:09;;;;;;;;;;;21.10;26.50;;;;;;5053395;28;20282;-52
2022/03/06 01:15:36;;;;;;;;;;;21.10;26.50;;;;;;5052002;28;20319;-47
2022/03/06 01:18:02;;;;;;;;;;;21.10;26.50;;;;;;5053500;28;19909;-49
2022/03/06 01:20:28;;;;;;;;;;;21.00;26.50;;;;;;5047027;28;19944;-48
2022/03/06 01:22:54;;;;;;;;;;;21.10;26.50;;;;;;5051371;28;19984;-51
2022/03/06 01:25:20;;;;;;;;;;;21.10;26.60;;;;;;5053276;28;19931;-53
2022/03/06 01:27:46;;;;;;;;;;;21.00;26.50;;;;;;5050911;28;19920;-55
2022/03/06 01:30:12;;;;;;;;;;;21.00;26.50;;;;;;5053175;28;19920;-48
2022/03/06 01:32:38;;;;;;;;;;;21.00;26.50;;;;;;5053561;28;19909;-48
2022/03/06 01:35:05;;;;;;;;;;;21.00;26.50;;;;;;5052602;28;19990;-48
2022/03/06 01:37:31;;;;;;;;;;;21.00;26.50;;;;;;5050998;28;19909;-52
2022/03/06 01:39:56;;;;;;;;;;;21.00;26.50;;;;;;5052577;28;19909;-48
2022/03/06 01:42:22;;;;;;;;;;;21.00;26.50;;;;;;5053386;28;19962;-53
2022/03/06 01:44:50;;;;;;;;;;;21.00;26.50;;;;;;5052667;28;19924;-50
2022/03/06 01:47:31;;;;;;;;;;;21.00;26.50;;;;;;5049617;28;19921;-48
2022/03/06 01:49:56;;;;;;;;;;;21.00;26.50;;;;;;5053254;28;20224;-52
2022/03/06 01:52:22;;;;;;;;;;;21.00;26.50;;;;;;5050951;28;19963;-52
2022/03/06 01:54:47;;;;;;;;;;;21.00;26.50;;;;;;5051112;28;19909;-52
2022/03/06 01:57:13;;;;;;;;;;;21.00;26.50;;;;;;5035536;28;19959;-50
2022/03/06 01:59:39;;;;;;;;;;;21.00;26.50;;;;;;5052407;28;19921;-51
2022/03/06 02:02:05;;;;;;;;;;;21.00;26.50;;;;;;5052405;28;19921;-54
2022/03/06 02:04:30;;;;;;;;;;;21.00;26.60;;;;;;5052434;28;19909;-51
2022/03/06 02:06:56;;;;;;;;;;;20.90;26.60;;;;;;5052621;28;20354;-48
2022/03/06 02:09:22;;;;;;;;;;;21.00;26.60;;;;;;5052201;28;19909;-53
2022/03/06 02:12:20;;;;;;;;;;;21.00;26.60;;;;;;5053312;28;20020;-48
2022/03/06 02:14:33;;;;;;;;;;;21.00;26.60;;;;;;5051045;28;19909;-52
2022/03/06 02:16:59;;;;;;;;;;;20.90;26.60;;;;;;5056513;28;20324;-50
2022/03/06 02:19:24;;;;;;;;;;;20.90;26.60;;;;;;5056424;28;20287;-49
2022/03/06 02:21:50;;;;;;;;;;;20.90;26.60;;;;;;5056767;28;19909;-55
2022/03/06 02:24:16;;;;;;;;;;;20.90;26.60;;;;;;5054247;28;19909;-53
2022/03/06 02:26:41;;;;;;;;;;;20.90;26.60;;;;;;5056049;28;20260;-48
2022/03/06 02:29:07;;;;;;;;;;;20.90;26.60;;;;;;5056042;28;20359;-50
2022/03/06 02:31:33;;;;;;;;;;;20.90;26.50;;;;;;5055406;28;19931;-49
2022/03/06 02:33:59;;;;;;;;;;;20.90;26.60;;;;;;5056700;28;19912;-48
2022/03/06 02:36:24;;;;;;;;;;;20.90;26.60;;;;;;5052882;28;20329;-51
2022/03/06 02:38:50;;;;;;;;;;;20.90;26.60;;;;;;5056090;28;20244;-52
2022/03/06 02:41:17;;;;;;;;;;;20.90;26.60;;;;;;5054629;28;19909;-53
2022/03/06 02:43:43;;;;;;;;;;;20.90;26.60;;;;;;5056097;28;19909;-53
2022/03/06 02:46:09;;;;;;;;;;;20.90;26.60;;;;;;5055259;28;19932;-46
2022/03/06 02:48:34;;;;;;;;;;;20.90;26.60;;;;;;5055742;28;20371;-55
2022/03/06 02:51:00;;;;;;;;;;;20.90;26.50;;;;;;5055107;28;19919;-55
2022/03/06 02:53:26;;;;;;;;;;;20.90;26.60;;;;;;5051988;28;19909;-51
2022/03/06 02:55:51;;;;;;;;;;;20.80;26.50;;;;;;5056349;28;20327;-47
2022/03/06 02:58:17;;;;;;;;;;;20.80;26.50;;;;;;5054936;28;20011;-50
2022/03/06 03:00:43;;;;;;;;;;;20.80;26.50;;;;;;5056263;28;20281;-48
2022/03/06 03:03:09;;;;;;;;;;;20.80;26.50;;;;;;5051859;28;19919;-50
2022/03/06 03:05:34;;;;;;;;;;;20.80;26.50;;;;;;5038382;28;19999;-50
2022/03/06 03:08:00;;;;;;;;;;;20.80;26.60;;;;;;5055020;28;20332;-52
2022/03/06 03:10:26;;;;;;;;;;;20.80;26.60;;;;;;5053057;28;20335;-51
2022/03/06 03:12:52;;;;;;;;;;;20.80;26.60;;;;;;5054957;28;19920;-47
2022/03/06 03:15:18;;;;;;;;;;;20.80;26.60;;;;;;5055813;28;19917;-51
2022/03/06 03:17:44;;;;;;;;;;;20.80;26.60;;;;;;5053284;28;19909;-50
2022/03/06 03:20:11;;;;;;;;;;;20.80;26.60;;;;;;5055433;28;19920;-50
2022/03/06 03:22:37;;;;;;;;;;;20.80;26.60;;;;;;5051215;28;20324;-48
2022/03/06 03:25:03;;;;;;;;;;;20.80;26.60;;;;;;5055695;28;19920;-49
2022/03/06 03:27:28;;;;;;;;;;;20.80;26.60;;;;;;5053480;28;19936;-48
2022/03/06 03:29:55;;;;;;;;;;;20.70;26.50;;;;;;5054656;28;19963;-52
2022/03/06 03:32:20;;;;;;;;;;;20.80;26.60;;;;;;5054552;28;19944;-51
2022/03/06 03:34:46;;;;;;;;;;;20.70;26.50;;;;;;5055384;28;19962;-53
2022/03/06 03:37:12;;;;;;;;;;;20.70;26.50;;;;;;5054815;28;19916;-47
2022/03/06 03:39:37;;;;;;;;;;;20.70;26.60;;;;;;5054418;28;19913;-50
2022/03/06 03:42:03;;;;;;;;;;;20.70;26.60;;;;;;5054811;28;19931;-47
2022/03/06 03:44:29;;;;;;;;;;;20.70;26.60;;;;;;5053902;28;19908;-51
2022/03/06 03:46:54;;;;;;;;;;;20.70;26.60;;;;;;5054970;28;20324;-48
2022/03/06 03:49:20;;;;;;;;;;;20.70;26.60;;;;;;5053413;28;20299;-48
2022/03/06 03:51:46;;;;;;;;;;;20.70;26.60;;;;;;5054345;28;20274;-52
2022/03/06 03:54:13;;;;;;;;;;;20.70;26.60;;;;;;5054098;28;20000;-49
2022/03/06 03:56:38;;;;;;;;;;;20.70;26.60;;;;;;5054740;28;19912;-50
2022/03/06 03:59:04;;;;;;;;;;;20.70;26.60;;;;;;5051681;28;20085;-49
2022/03/06 04:01:30;;;;;;;;;;;20.70;26.60;;;;;;5036870;28;19948;-49
2022/03/06 04:03:55;;;;;;;;;;;20.70;26.60;;;;;;5052255;28;19917;-55
2022/03/06 04:06:21;;;;;;;;;;;20.70;26.60;;;;;;5054236;28;19925;-48
2022/03/06 04:08:47;;;;;;;;;;;20.70;26.60;;;;;;5053722;28;19961;-50
2022/03/06 04:11:12;;;;;;;;;;;20.70;26.60;;;;;;5053950;28;19910;-51
2022/03/06 04:13:38;;;;;;;;;;;20.70;26.60;;;;;;5054560;28;20340;-49
2022/03/06 04:16:04;;;;;;;;;;;20.70;26.60;;;;;;5053362;28;19908;-51
2022/03/06 04:18:30;;;;;;;;;;;20.70;26.60;;;;;;5051280;28;20004;-49
2022/03/06 04:20:55;;;;;;;;;;;20.60;26.50;;;;;;5033746;28;20298;-53
2022/03/06 04:23:21;;;;;;;;;;;20.70;26.60;;;;;;5050524;28;19936;-48
2022/03/06 04:25:47;;;;;;;;;;;20.60;26.50;;;;;;5054403;28;19967;-45
2022/03/06 04:28:12;;;;;;;;;;;20.60;26.60;;;;;;5054095;28;19917;-51
2022/03/06 04:30:38;;;;;;;;;;;20.60;26.50;;;;;;5051222;28;19991;-48
2022/03/06 04:33:04;;;;;;;;;;;20.60;26.60;;;;;;5053510;28;20209;-51
2022/03/06 04:35:29;;;;;;;;;;;20.60;26.50;;;;;;5054181;28;20613;-49
2022/03/06 04:37:55;;;;;;;;;;;20.60;26.60;;;;;;5052051;28;19913;-48
2022/03/06 04:40:21;;;;;;;;;;;20.60;26.60;;;;;;5054098;28;19919;-49
2022/03/06 04:42:46;;;;;;;;;;;20.60;26.60;;;;;;5052913;28;19919;-50
2022/03/06 04:45:12;;;;;;;;;;;20.60;26.60;;;;;;5053786;28;20008;-51
2022/03/06 04:47:38;;;;;;;;;;;20.60;26.60;;;;;;5051897;28;19928;-49
2022/03/06 04:50:04;;;;;;;;;;;20.60;26.60;;;;;;5051588;28;19999;-49
2022/03/06 04:52:29;;;;;;;;;;;20.50;27.00;;;;;;5049978;28;20244;-51
2022/03/06 04:54:55;;;;;;;;;;;20.50;26.50;;;;;;5051658;28;19923;-52
2022/03/06 04:57:21;;;;;;;;;;;20.50;26.50;;;;;;5052170;28;20012;-51
2022/03/06 04:59:46;;;;;;;;;;;20.50;26.50;;;;;;5053503;28;19913;-53
2022/03/06 05:02:12;;;;;;;;;;;20.60;26.60;;;;;;5052648;28;19908;-50
2022/03/06 05:04:38;;;;;;;;;;;20.60;26.60;;;;;;5036158;28;19996;-50
2022/03/06 05:07:04;;;;;;;;;;;20.50;26.50;;;;;;5052680;28;19917;-54
2022/03/06 05:09:29;;;;;;;;;;;20.50;26.50;;;;;;5052627;28;20017;-55
2022/03/06 05:11:55;;;;;;;;;;;20.50;26.50;;;;;;5053106;28;20309;-54
2022/03/06 05:14:21;;;;;;;;;;;20.50;26.50;;;;;;5052365;28;19923;-52
2022/03/06 05:16:46;;;;;;;;;;;20.50;26.50;;;;;;5053278;28;19996;-47
2022/03/06 05:19:12;;;;;;;;;;;20.50;26.50;;;;;;5051332;28;19909;-48
2022/03/06 05:21:38;;;;;;;;;;;20.50;26.50;;;;;;5053766;28;19920;-49
2022/03/06 05:24:04;;;;;;;;;;;20.50;26.50;;;;;;5051612;28;19908;-47
2022/03/06 05:26:29;;;;;;;;;;;20.50;26.50;;;;;;5053640;28;19919;-48
2022/03/06 05:28:55;;;;;;;;;;;20.50;26.50;;;;;;5050256;28;19913;-48
2022/03/06 05:31:21;;;;;;;;;;;20.50;27.10;;;;;;5053363;28;20058;-53
2022/03/06 05:33:46;;;;;;;;;;;20.50;26.60;;;;;;5052679;28;19908;-48
2022/03/06 05:36:12;;;;;;;;;;;20.50;26.60;;;;;;5052752;28;19995;-53
2022/03/06 05:38:38;;;;;;;;;;;20.50;26.60;;;;;;5053263;28;19920;-49
2022/03/06 05:41:03;;;;;;;;;;;20.50;26.60;;;;;;5052142;28;19967;-47
2022/03/06 05:43:29;;;;;;;;;;;20.50;26.60;;;;;;5052922;28;19921;-51
2022/03/06 05:45:55;;;;;;;;;;;20.50;26.60;;;;;;5050048;28;19913;-51
2022/03/06 05:48:21;;;;;;;;;;;20.50;26.60;;;;;;5051750;28;19977;-49
2022/03/06 05:50:47;;;;;;;;;;;20.50;26.60;;;;;;5056285;28;19983;-46
2022/03/06 05:53:12;;;;;;;;;;;20.40;26.60;;;;;;5056974;28;20350;-46
2022/03/06 05:55:38;;;;;;;;;;;20.40;26.60;;;;;;5056176;28;19913;-49
2022/03/06 05:58:04;;;;;;;;;;;20.40;26.60;;;;;;5056837;28;19909;-52
2022/03/06 06:00:30;;;;;;;;;;;20.40;26.60;;;;;;5056361;28;19909;-51
2022/03/06 06:02:55;;;;;;;;;;;20.40;26.60;;;;;;5054554;28;20276;-50
2022/03/06 06:05:22;;;;;;;;;;;20.40;26.60;;;;;;5056666;28;19921;-52
2022/03/06 06:07:48;;;;;;;;;;;20.40;26.60;;;;;;5052296;28;19921;-53
2022/03/06 06:10:14;;;;;;;;;;;20.40;26.50;;;;;;5057257;28;19963;-53
2022/03/06 06:12:40;;;;;;;;;;;20.40;26.60;;;;;;5055451;28;19909;-49
2022/03/06 06:15:06;;;;;;;;;;;20.40;26.50;;;;;;5056598;28;19955;-48
2022/03/06 06:17:31;;;;;;;;;;;20.40;26.60;;;;;;5050825;28;19909;-51
2022/03/06 06:19:59;;;;;;;;;;;20.40;26.60;;;;;;5056599;28;19909;-51
2022/03/06 06:22:26;;;;;;;;;;;20.40;26.60;;;;;;5055748;28;19913;-48
2022/03/06 06:24:51;;;;;;;;;;;20.40;26.60;;;;;;5056853;28;20304;-50
2022/03/06 06:27:17;;;;;;;;;;;20.40;26.60;;;;;;5055058;28;20019;-48
2022/03/06 06:29:44;;;;;;;;;;;20.40;26.60;;;;;;5056299;28;19943;-50
2022/03/06 06:32:09;;;;;;;;;;;20.40;26.60;;;;;;5055208;28;19952;-47
2022/03/06 06:34:35;;;;;;;;;;;20.40;26.60;;;;;;5056733;28;20350;-49
2022/03/06 06:37:02;;;;;;;;;;;20.40;26.60;;;;;;5052559;28;19913;-51
2022/03/06 06:39:28;;;;;;;;;;;20.40;26.60;;;;;;5056723;28;19919;-52
2022/03/06 06:41:53;;;;;;;;;;;20.40;26.60;;;;;;5054731;28;20306;-48
2022/03/06 06:44:19;;;;;;;;;;;20.40;26.60;;;;;;5056239;28;19913;-50
2022/03/06 06:46:45;;;;;;;;;;;20.40;26.60;;;;;;5053460;28;19929;-47
2022/03/06 06:49:11;;;;;;;;;;;20.40;26.60;;;;;;5055361;28;19999;-53
2022/03/06 06:51:38;;;;;;;;;;;20.40;26.60;;;;;;5055348;28;19934;-49
2022/03/06 06:54:04;;;;;;;;;;;20.40;26.60;;;;;;5055031;28;20019;-47
2022/03/06 06:56:31;;;;;;;;;;;20.40;26.60;;;;;;5055781;28;19912;-52
2022/03/06 06:58:56;;;;;;;;;;;20.40;26.60;;;;;;5053194;28;19967;-53
2022/03/06 07:01:22;;;;;;;;;;;20.40;26.60;;;;;;5057540;28;19913;-50
2022/03/06 07:03:48;;;;;;;;;;;20.40;26.60;;;;;;5055526;28;20354;-52
2022/03/06 07:06:14;;;;;;;;;;;20.30;26.60;;;;;;5053363;28;19908;-55
2022/03/06 07:08:40;;;;;;;;;;;20.40;26.70;;;;;;5055498;28;20016;-53
2022/03/06 07:11:06;;;;;;;;;;;20.30;26.60;;;;;;5055495;28;19916;-50
2022/03/06 07:13:31;;;;;;;;;;;20.30;26.60;;;;;;5055201;28;19909;-46
2022/03/06 07:15:58;;;;;;;;;;;20.30;26.70;;;;;;5052414;28;20003;-52
2022/03/06 07:18:23;;;;;;;;;;;20.40;26.70;;;;;;5054417;28;19921;-54
2022/03/06 07:20:49;;;;;;;;;;;20.30;26.70;;;;;;5054647;28;20373;-52
2022/03/06 07:23:15;;;;;;;;;;;20.30;26.70;;;;;;5055257;28;19920;-47
2022/03/06 07:25:41;;;;;;;;;;;20.30;26.70;;;;;;5053039;28;20375;-48
2022/03/06 07:28:07;;;;;;;;;;;20.30;26.70;;;;;;5054120;28;19964;-53
2022/03/06 07:30:32;;;;;;;;;;;20.30;26.70;;;;;;5054165;28;19967;-51
2022/03/06 07:33:00;;;;;;;;;;;20.30;26.70;;;;;;5055250;28;19920;-53
2022/03/06 07:35:26;;;;;;;;;;;20.30;26.70;;;;;;5053688;28;19921;-55
2022/03/06 07:37:52;;;;;;;;;;;20.30;26.70;;;;;;5055381;28;19909;-51
2022/03/06 07:40:18;;;;;;;;;;;20.30;26.70;;;;;;5052818;28;19909;-51
2022/03/06 07:42:44;;;;;;;;;;;20.30;26.70;;;;;;5055514;28;19991;-48
2022/03/06 07:45:10;;;;;;;;;;;20.30;26.70;;;;;;5052196;28;19927;-53
2022/03/06 07:47:36;;;;;;;;;;;20.30;26.70;;;;;;5056954;28;20002;-47
2022/03/06 07:50:02;;;;;;;;;;;20.20;26.60;;;;;;5054969;28;19917;-44
2022/03/06 07:52:28;;;;;;;;;;;20.30;26.60;;;;;;5036589;28;19909;-45
2022/03/06 07:54:53;;;;;;;;;;;20.30;26.60;;;;;;5037473;28;20389;-50
2022/03/06 07:57:19;;;;;;;;;;;20.20;26.60;;;;;;5053836;28;19919;-51
2022/03/06 07:59:45;;;;;;;;;;;20.20;26.60;;;;;;5048977;28;20336;-49
2022/03/06 08:02:11;;;;;;;;;;;20.20;26.60;;;;;;5022476;28;19939;-55
2022/03/06 08:04:36;;;;;;;;;;;20.20;26.70;;;;;;5055114;28;19909;-53
2022/03/06 08:07:02;;;;;;;;;;;20.20;26.70;;;;;;5055169;28;19917;-52
2022/03/06 08:09:28;;;;;;;;;;;20.20;26.70;;;;;;5036031;28;19919;-51
2022/03/06 08:11:53;;;;;;;;;;;20.20;26.70;;;;;;5036354;28;19909;-55
2022/03/06 08:14:19;;;;;;;;;;;20.20;26.70;;;;;;5049722;28;19920;-51
2022/03/06 08:16:45;;;;;;;;;;;20.20;26.80;;;;;;5052762;28;19942;-51
2022/03/06 08:19:11;;;;;;;;;;;20.20;26.80;;;;;;5049044;28;19913;-53
2022/03/06 08:21:39;;;;;;;;;;;20.20;26.80;;;;;;5055860;28;19916;-51
2022/03/06 08:24:04;;;;;;;;;;;20.30;26.80;;;;;;5055196;28;19939;-56
2022/03/06 08:26:30;;;;;;;;;;;20.30;26.80;;;;;;5035624;28;19994;-49
2022/03/06 08:28:56;;;;;;;;;;;20.20;26.80;;;;;;5049031;28;19913;-48
2022/03/06 08:31:21;;;;;;;;;;;20.30;26.80;;;;;;5045227;28;19909;-48
2022/03/06 08:33:47;;;;;;;;;;;20.30;26.80;;;;;;5054801;28;19908;-49
2022/03/06 08:36:13;;;;;;;;;;;20.30;26.70;;;;;;5055338;28;20256;-49
2022/03/06 08:38:39;;;;;;;;;;;20.40;26.70;;;;;;5039948;28;19991;-48
2022/03/06 08:41:04;;;;;;;;;;;20.40;26.60;;;;;;5044885;28;19909;-50
2022/03/06 08:43:30;;;;;;;;;;;20.40;26.60;;;;;;5054394;28;19916;-53
2022/03/06 08:45:56;;;;;;;;;;;20.50;26.70;;;;;;5055323;28;19913;-47
2022/03/06 08:48:21;;;;;;;;;;;20.40;26.60;;;;;;5054442;28;19917;-50
2022/03/06 08:50:49;;;;;;;;;;;20.50;26.70;;;;;;5055292;28;19917;-48
2022/03/06 08:53:15;;;;;;;;;;;20.50;26.70;;;;;;5043028;28;19909;-53
2022/03/06 08:55:41;;;;;;;;;;;20.50;26.70;;;;;;5035346;28;20339;-46
2022/03/06 08:58:06;;;;;;;;;;;20.50;26.70;;;;;;5052988;28;19909;-50
2022/03/06 09:00:32;;;;;;;;;;;20.50;26.70;;;;;;5040287;28;20221;-47
2022/03/06 09:02:58;;;;;;;;;;;20.50;26.70;;;;;;5036506;28;20340;-49
2022/03/06 09:05:23;;;;;;;;;;;20.50;26.70;;;;;;5035219;28;19964;-53
2022/03/06 09:07:49;;;;;;;;;;;20.60;26.80;;;;;;5035176;28;20285;-50
2022/03/06 09:10:15;;;;;;;;;;;20.60;26.80;;;;;;5035236;28;20336;-51
2022/03/06 09:12:40;;;;;;;;;;;20.50;26.70;;;;;;5036445;28;19909;-48
2022/03/06 09:15:06;;;;;;;;;;;20.60;26.70;;;;;;5017964;28;19916;-49
2022/03/06 09:17:32;;;;;;;;;;;20.60;26.70;;;;;;5043766;28;20003;-50
2022/03/06 09:19:58;;;;;;;;;;;20.60;26.70;;;;;;5043017;28;20398;-48
2022/03/06 09:22:23;;;;;;;;;;;20.50;26.70;;;;;;5043576;28;19920;-47
2022/03/06 09:24:49;;;;;;;;;;;20.60;26.70;;;;;;5057541;28;20376;-53
2022/03/06 09:27:15;;;;;;;;;;;20.50;26.60;;;;;;5055426;28;19932;-49
2022/03/06 09:29:40;;;;;;;;;;;20.50;26.70;;;;;;5055633;28;20013;-47
2022/03/06 09:32:06;;;;;;;;;;;20.50;26.70;;;;;;5056088;28;20558;-56
2022/03/06 09:34:32;;;;;;;;;;;20.60;26.80;;;;;;5057246;28;19940;-53
2022/03/06 09:36:57;;;;;;;;;;;20.60;26.80;;;;;;5057024;28;19960;-47
2022/03/06 09:39:23;;;;;;;;;;;20.60;26.70;;;;;;5056017;28;19920;-50
2022/03/06 09:41:50;;;;;;;;;;;20.50;26.70;;;;;;5054639;28;19936;-50
2022/03/06 09:44:16;;;;;;;;;;;20.40;26.80;;;;;;5056645;28;19943;-58
2022/03/06 09:46:41;;;;;;;;;;;20.40;27.00;;;;;;5054613;28;19960;-54
2022/03/06 09:49:07;;;;;;;;;;;20.40;27.10;;;;;;5052456;28;19908;-59
2022/03/06 09:51:33;;;;;;;;;;;20.40;27.20;;;;;;5057039;28;19909;-55
2022/03/06 09:53:59;;;;;;;;;;;20.40;27.40;;;;;;5055818;28;19919;-48
2022/03/06 09:56:25;;;;;;;;;;;20.40;28.00;;;;;;5056386;28;19913;-47
2022/03/06 09:58:50;;;;;;;;;;;20.50;28.70;;;;;;5053211;28;19925;-51
2022/03/06 10:01:16;;;;;;;;;;;20.50;28.90;;;;;;5039188;28;19908;-53
2022/03/06 10:03:42;;;;;;;;;;;20.50;28.90;;;;;;5054895;28;19916;-52
2022/03/06 10:06:10;;;;;;;;;;;20.50;29.50;;;;;;5052600;28;19931;-58
2022/03/06 10:08:35;;;;;;;;;;;20.60;30.20;;;;;;5055948;28;19982;-49
2022/03/06 10:11:03;;;;;;;;;;;20.70;31.10;;;;;;5057113;28;19912;-49
2022/03/06 10:13:36;;;;;;;;;;;20.70;31.90;;;;;;5037615;28;20228;-45
2022/03/06 10:16:12;;;;;;;;;;;20.80;32.50;;;;;;5053055;28;19912;-45
2022/03/06 10:18:46;;;;;;;;;;;20.80;32.60;;;;;;5051701;28;19920;-51
2022/03/06 10:21:14;;;;;;;;;;;20.90;32.40;;;;;;5054623;28;19908;-42
2022/03/06 10:23:40;;;;;;;;;;;21.00;32.90;;;;;;5054202;28;20321;-46
2022/03/06 10:26:19;;;;;;;;;;;21.00;33.90;;;;;;5053866;28;19908;-49
2022/03/06 10:28:47;;;;;;;;;;;21.00;34.80;;;;;;5053430;28;20043;-45
2022/03/06 10:31:13;;;;;;;;;;;21.10;35.70;;;;;;5055929;28;19913;-53
2022/03/06 10:33:39;;;;;;;;;;;21.20;36.10;;;;;;5054580;28;19942;-54
2022/03/06 10:36:06;;;;;;;;;;;21.20;36.60;;;;;;5055122;28;20015;-52
2022/03/06 10:38:33;;;;;;;;;;;21.30;37.10;;;;;;5053965;28;20403;-53
2022/03/06 10:41:03;;;;;;;;;;;21.30;37.00;;;;;;5055782;28;20355;-57
2022/03/06 10:43:30;;;;;;;;;;;21.30;36.30;;;;;;5055337;28;20245;-52
2022/03/06 10:46:08;;;;;;;;;;;21.40;35.50;;;;;;5055982;28;19909;-57
2022/03/06 10:48:34;;;;;;;;;;;21.30;33.90;;;;;;5049020;28;20012;-40
2022/03/06 10:51:03;;;;;;;;;;;21.10;32.60;;;;;;5050826;28;20063;-43
2022/03/06 10:53:29;;;;;;;;;;;20.90;32.10;;;;;;5054892;28;20217;-45
2022/03/06 10:55:55;;;;;;;;;;;20.80;31.80;;;;;;5056252;28;19923;-47
2022/03/06 10:58:21;;;;;;;;;;;20.80;31.50;;;;;;5051479;28;20328;-44
2022/03/06 11:00:47;;;;;;;;;;;20.90;31.20;;;;;;5054973;28;19913;-44
2022/03/06 11:03:13;;;;;;;;;;;21.00;31.00;;;;;;5054134;28;19908;-42
2022/03/06 11:05:42;;;;;;;;;;;21.00;30.70;;;;;;5053966;28;19909;-42
2022/03/06 11:08:11;;;;;;;;;;;21.00;30.40;;;;;;5054972;28;19932;-44
2022/03/06 11:10:38;;;;;;;;;;;21.10;30.30;;;;;;5049788;28;19924;-44
2022/03/06 11:13:05;;;;;;;;;;;21.10;30.10;;;;;;5056034;28;19921;-42
2022/03/06 11:15:30;;;;;;;;;;;21.20;30.00;;;;;;5054317;28;19934;-47
2022/03/06 11:18:00;;;;;;;;;;;21.20;29.90;;;;;;5047567;28;19931;-44
2022/03/06 11:20:27;;;;;;;;;;;21.20;29.80;;;;;;5055143;28;19908;-49
2022/03/06 11:23:06;;;;;;;;;;;21.30;29.70;;;;;;5051926;28;19974;-44
2022/03/06 11:25:36;;;;;;;;;;;21.30;29.70;;;;;;5051203;28;20004;-45
2022/03/06 11:28:10;;;;;;;;;;;21.30;29.60;;;;;;5049119;28;19917;-45
2022/03/06 11:30:36;;;;;;;;;;;21.40;29.50;;;;;;5049752;28;19909;-43
2022/03/06 11:33:07;;;;;;;;;;;21.40;29.40;;;;;;5053715;28;19908;-42
2022/03/06 11:35:43;;;;;;;;;;;21.40;29.40;;;;;;5035741;28;20224;-41
2022/03/06 11:38:10;;;;;;;;;;;21.50;29.30;;;;;;5036401;28;20290;-42
2022/03/06 11:40:45;;;;;;;;;;;21.50;29.20;;;;;;5055077;28;20003;-42
2022/03/06 11:43:32;;;;;;;;;;;21.50;29.20;;;;;;5052899;28;20283;-44
2022/03/06 11:46:05;;;;;;;;;;;21.60;29.10;;;;;;5052103;28;19919;-42
2022/03/06 11:48:34;;;;;;;;;;;21.50;29.00;;;;;;5052681;28;19916;-43
2022/03/06 11:51:14;;;;;;;;;;;21.60;29.00;;;;;;5051873;28;19979;-43
2022/03/06 11:53:52;;;;;;;;;;;21.60;28.90;;;;;;5054451;28;19909;-44
2022/03/06 11:56:39;;;;;;;;;;;21.60;28.80;;;;;;5053567;28;19931;-44
2022/03/06 11:59:17;;;;;;;;;;;21.70;28.80;;;;;;5054643;28;19942;-44
2022/03/06 12:01:47;;;;;;;;;;;21.70;28.70;;;;;;5050706;28;19939;-42
2022/03/06 12:04:14;;;;;;;;;;;21.70;28.70;;;;;;5054833;28;20193;-40
2022/03/06 12:06:50;;;;;;;;;;;21.70;28.60;;;;;;5036752;28;20220;-42
2022/03/06 12:09:17;;;;;;;;;;;21.70;28.60;;;;;;5051491;28;19913;-43
2022/03/06 12:11:44;;;;;;;;;;;21.70;28.50;;;;;;5050326;28;19913;-41
2022/03/06 12:14:14;;;;;;;;;;;21.70;28.50;;;;;;5050873;28;19991;-43
2022/03/06 12:16:58;;;;;;;;;;;21.80;28.50;;;;;;5050134;28;19909;-41
2022/03/06 12:19:24;;;;;;;;;;;21.80;28.50;;;;;;5041496;28;19916;-45
2022/03/06 12:21:49;;;;;;;;;;;21.90;28.50;;;;;;5046288;28;19921;-40
2022/03/06 12:24:27;;;;;;;;;;;21.90;28.50;;;;;;5043945;28;19913;-45
2022/03/06 12:26:53;;;;;;;;;;;21.90;28.50;;;;;;5044660;28;19908;-43
2022/03/06 12:29:37;;;;;;;;;;;22.00;28.50;;;;;;5044076;28;19971;-40
2022/03/06 12:32:22;;;;;;;;;;;22.00;28.50;;;;;;5041923;28;20341;-44
2022/03/06 12:34:53;;;;;;;;;;;22.10;28.50;;;;;;5043630;28;19993;-42
2022/03/06 12:37:28;;;;;;;;;;;22.10;28.50;;;;;;5046430;28;19991;-41
2022/03/06 12:39:54;;;;;;;;;;;22.10;28.50;;;;;;5042984;28;19909;-41
2022/03/06 12:42:27;;;;;;;;;;;22.20;28.50;;;;;;5044978;28;19909;-41
2022/03/06 12:44:54;;;;;;;;;;;22.20;28.50;;;;;;5043245;28;20006;-41
2022/03/06 12:47:20;;;;;;;;;;;22.20;28.50;;;;;;5043622;28;19917;-40
2022/03/06 12:49:47;;;;;;;;;;;22.30;28.50;;;;;;5043976;28;19932;-47
2022/03/06 12:52:15;;;;;;;;;;;22.30;28.50;;;;;;5042410;28;19909;-42
2022/03/06 12:54:41;;;;;;;;;;;22.30;28.50;;;;;;5042651;28;20227;-41
2022/03/06 12:57:06;;;;;;;;;;;22.40;28.60;;;;;;5043810;28;19908;-42
2022/03/06 12:59:39;;;;;;;;;;;22.40;28.60;;;;;;5044085;28;20003;-44
2022/03/06 13:02:05;;;;;;;;;;;22.40;28.50;;;;;;5048793;28;20355;-42
2022/03/06 13:04:31;;;;;;;;;;;22.40;28.50;;;;;;5045254;28;19960;-43
2022/03/06 13:06:57;;;;;;;;;;;22.50;28.50;;;;;;5041496;28;19972;-45
2022/03/06 13:09:27;;;;;;;;;;;22.50;28.50;;;;;;5043218;28;21782;-45
2022/03/06 13:11:54;;;;;;;;;;;22.50;28.50;;;;;;5042350;28;19909;-42
2022/03/06 13:14:27;;;;;;;;;;;22.50;28.50;;;;;;5043723;28;20021;-41
2022/03/06 13:16:56;;;;;;;;;;;22.50;28.50;;;;;;5045110;28;19948;-44
2022/03/06 13:19:22;;;;;;;;;;;22.50;28.50;;;;;;5041337;28;19971;-46
2022/03/06 13:21:48;;;;;;;;;;;22.50;28.50;;;;;;5041179;28;19909;-44
2022/03/06 13:24:15;;;;;;;;;;;22.50;28.50;;;;;;5044640;28;19992;-43
2022/03/06 13:26:41;;;;;;;;;;;22.50;28.50;;;;;;5042042;28;19941;-40
2022/03/06 13:29:12;;;;;;;;;;;22.50;28.50;;;;;;5047156;28;19923;-42
2022/03/06 13:31:42;;;;;;;;;;;22.50;28.50;;;;;;5051767;28;19909;-42
2022/03/06 13:34:08;;;;;;;;;;;22.50;28.40;;;;;;5045442;28;20002;-46
2022/03/06 13:36:36;;;;;;;;;;;22.50;28.50;;;;;;5045803;28;20554;-44
2022/03/06 13:39:20;;;;;;;;;;;22.50;28.50;;;;;;5038978;28;19909;-50
2022/03/06 13:41:49;;;;;;;;;;;22.50;28.50;;;;;;5037338;28;19913;-47
2022/03/06 13:44:15;;;;;;;;;;;22.50;28.50;;;;;;5053992;28;19913;-44
2022/03/06 13:46:41;;;;;;;;;;;22.40;28.50;;;;;;5049513;28;19924;-44
2022/03/06 13:49:08;;;;;;;;;;;22.40;28.50;;;;;;5054288;28;20326;-44
2022/03/06 13:51:33;;;;;;;;;;;22.40;28.60;;;;;;5044718;28;19909;-55
2022/03/06 13:54:01;;;;;;;;;;;22.40;28.60;;;;;;5052690;28;19924;-50
2022/03/06 13:56:31;;;;;;;;;;;22.40;28.60;;;;;;5041227;28;19909;-58
2022/03/06 13:58:57;;;;;;;;;;;22.40;28.60;;;;;;5043753;28;19970;-52
2022/03/06 14:01:24;;;;;;;;;;;22.40;28.60;;;;;;5044193;28;20324;-48
2022/03/06 14:03:56;;;;;;;;;;;22.30;28.50;;;;;;5051775;28;20316;-48
2022/03/06 14:06:31;;;;;;;;;;;22.30;28.60;;;;;;5053654;28;19936;-46
2022/03/06 14:08:57;;;;;;;;;;;22.30;28.60;;;;;;5053054;28;19927;-50
2022/03/06 14:11:24;;;;;;;;;;;22.40;28.60;;;;;;5042327;28;19913;-44
2022/03/06 14:13:53;;;;;;;;;;;22.30;28.60;;;;;;5045348;28;19909;-47